Time;durP1;ratioP1;P1;durP2;ratioP2;P2;SDS_P1;SDS_P2;PMS_P1;PMS_P2;Temp;Humidity;BMP_temperature;BMP_pressure;BME280_temperature;BME280_humidity;BME280_pressure;Samples;Min_cycle;Max_cycle;Signal;HPM_P1;HPM_P2
2023/12/03 00:01:58;;;;;;;12.03;7.93;;;-4.30;99.90;;;;;;5056364;28;20021;-75
2023/12/03 00:04:24;;;;;;;12.40;7.63;;;-4.30;99.90;;;;;;5055552;28;20017;-76
2023/12/03 00:06:50;;;;;;;13.63;7.83;;;-4.40;99.90;;;;;;5055619;28;20031;-76
2023/12/03 00:09:16;;;;;;;13.33;8.37;;;-4.40;99.90;;;;;;5056867;28;20021;-76
2023/12/03 00:11:42;;;;;;;11.93;8.07;;;-4.50;99.90;;;;;;5058024;28;20028;-76
2023/12/03 00:14:07;;;;;;;12.43;7.90;;;-4.50;99.90;;;;;;5056292;28;20098;-76
2023/12/03 00:16:33;;;;;;;12.07;7.40;;;-4.50;99.90;;;;;;5055020;28;20064;-76
2023/12/03 00:18:58;;;;;;;11.90;7.37;;;-4.60;99.90;;;;;;5055783;28;20033;-76
2023/12/03 00:21:24;;;;;;;12.87;8.10;;;-4.60;99.90;;;;;;5055853;28;20021;-75
2023/12/03 00:23:50;;;;;;;11.50;7.50;;;-4.70;99.90;;;;;;5056119;28;20024;-76
2023/12/03 00:26:15;;;;;;;12.60;8.20;;;-4.70;99.90;;;;;;5055202;28;20414;-75
2023/12/03 00:28:41;;;;;;;11.93;8.10;;;-4.70;99.90;;;;;;5056307;28;20032;-75
2023/12/03 00:31:06;;;;;;;14.80;8.40;;;-4.70;99.90;;;;;;5059482;28;20041;-75
2023/12/03 00:33:32;;;;;;;12.37;8.10;;;-4.80;99.90;;;;;;5059379;28;20021;-75
2023/12/03 00:35:59;;;;;;;12.57;8.03;;;-4.70;99.90;;;;;;5059623;28;20029;-75
2023/12/03 00:38:25;;;;;;;13.03;8.07;;;-4.80;99.90;;;;;;5059778;28;20181;-75
2023/12/03 00:40:50;;;;;;;12.27;7.93;;;-4.80;99.90;;;;;;5059553;28;20478;-75
2023/12/03 00:43:16;;;;;;;15.83;7.93;;;-4.80;99.90;;;;;;5060370;28;20021;-75
2023/12/03 00:45:41;;;;;;;14.10;8.53;;;-4.80;99.90;;;;;;5059244;28;20055;-75
2023/12/03 00:48:07;;;;;;;16.93;8.03;;;-4.90;99.90;;;;;;5059872;28;20108;-75
2023/12/03 00:50:32;;;;;;;10.77;7.63;;;-4.90;99.90;;;;;;5059156;28;20415;-75
2023/12/03 00:52:58;;;;;;;13.87;8.87;;;-4.90;99.90;;;;;;5059246;28;20021;-76
2023/12/03 00:55:24;;;;;;;11.97;8.10;;;-4.90;99.90;;;;;;5060240;28;20024;-76
2023/12/03 00:57:49;;;;;;;12.97;8.73;;;-4.90;99.90;;;;;;5059243;28;20024;-76
2023/12/03 01:00:15;;;;;;;13.43;8.23;;;-4.90;99.90;;;;;;5060188;28;20029;-76
2023/12/03 01:02:41;;;;;;;13.37;8.33;;;-5.00;99.90;;;;;;5059342;28;20499;-76
2023/12/03 01:05:07;;;;;;;15.43;8.93;;;-5.00;99.90;;;;;;5058355;28;20081;-75
2023/12/03 01:07:32;;;;;;;12.47;8.20;;;-4.90;99.90;;;;;;5058444;28;20094;-76
2023/12/03 01:09:58;;;;;;;14.40;9.40;;;-4.90;99.90;;;;;;5059317;28;20040;-75
2023/12/03 01:12:23;;;;;;;14.87;8.63;;;-4.90;99.90;;;;;;5059252;28;20032;-75
2023/12/03 01:14:49;;;;;;;13.97;8.20;;;-4.90;99.90;;;;;;5056650;28;20151;-76
2023/12/03 01:17:15;;;;;;;14.90;9.60;;;-4.90;99.90;;;;;;5058064;28;20028;-76
2023/12/03 01:19:40;;;;;;;14.00;8.90;;;-4.90;99.90;;;;;;5058666;28;20051;-76
2023/12/03 01:22:06;;;;;;;14.50;9.60;;;-5.00;99.90;;;;;;5059514;28;20475;-76
2023/12/03 01:24:31;;;;;;;14.70;8.80;;;-5.00;99.90;;;;;;5059224;28;20086;-76
2023/12/03 01:26:57;;;;;;;13.70;9.43;;;-5.00;99.90;;;;;;5058584;28;21377;-76
2023/12/03 01:29:22;;;;;;;13.57;8.93;;;-5.00;99.90;;;;;;5058481;28;20034;-76
2023/12/03 01:31:48;;;;;;;12.83;8.70;;;-5.00;99.90;;;;;;5058372;28;20056;-76
2023/12/03 01:34:14;;;;;;;13.63;8.47;;;-5.00;99.90;;;;;;5059214;28;20144;-76
2023/12/03 01:36:39;;;;;;;13.87;8.57;;;-5.00;99.90;;;;;;5057551;28;20040;-76
2023/12/03 01:39:08;;;;;;;14.33;8.63;;;-5.00;99.90;;;;;;5058976;28;20028;-76
2023/12/03 01:41:34;;;;;;;15.00;8.83;;;-5.00;99.90;;;;;;5057717;28;20499;-76
2023/12/03 01:43:59;;;;;;;15.63;8.97;;;-5.00;99.90;;;;;;5058812;28;20070;-76
2023/12/03 01:46:26;;;;;;;13.40;8.93;;;-5.00;99.90;;;;;;5058040;28;20036;-76
2023/12/03 01:48:53;;;;;;;11.57;8.23;;;-5.00;99.90;;;;;;5058662;28;20078;-76
2023/12/03 01:51:19;;;;;;;14.10;8.90;;;-5.00;99.90;;;;;;5058933;28;20041;-76
2023/12/03 01:53:45;;;;;;;13.83;8.73;;;-5.10;99.90;;;;;;5058940;28;20044;-76
2023/12/03 01:56:12;;;;;;;13.60;8.70;;;-5.10;99.90;;;;;;5058065;28;20214;-76
2023/12/03 01:58:38;;;;;;;13.17;8.53;;;-5.20;99.90;;;;;;5057244;28;20037;-76
2023/12/03 02:01:05;;;;;;;14.67;9.10;;;-5.20;99.90;;;;;;5058596;28;20029;-76
2023/12/03 02:03:31;;;;;;;15.63;9.27;;;-5.30;99.90;;;;;;5057469;28;20013;-76
2023/12/03 02:06:07;;;;;;;12.70;8.40;;;-5.30;99.90;;;;;;5057708;28;21507;-76
2023/12/03 02:08:34;;;;;;;15.80;9.10;;;-5.40;99.90;;;;;;5059912;28;20029;-76
2023/12/03 02:11:00;;;;;;;12.77;8.17;;;-5.40;99.90;;;;;;5058031;28;20040;-76
2023/12/03 02:13:29;;;;;;;14.83;9.53;;;-5.50;99.90;;;;;;5058469;28;20035;-76
2023/12/03 02:15:55;;;;;;;16.23;9.23;;;-5.50;99.90;;;;;;5057552;28;20032;-76
2023/12/03 02:18:20;;;;;;;14.07;8.77;;;-5.60;99.90;;;;;;5057819;28;20028;-76
2023/12/03 02:20:46;;;;;;;14.87;9.53;;;-5.60;99.90;;;;;;5057802;28;20069;-76
2023/12/03 02:23:12;;;;;;;13.20;8.70;;;-5.60;99.90;;;;;;5057384;28;20484;-76
2023/12/03 02:25:37;;;;;;;14.17;8.93;;;-5.70;99.90;;;;;;5058836;28;20111;-76
2023/12/03 02:28:03;;;;;;;13.47;8.63;;;-5.80;99.90;;;;;;5059010;28;20132;-76
2023/12/03 02:30:28;;;;;;;16.07;10.30;;;-5.80;99.90;;;;;;5057193;28;20465;-76
2023/12/03 02:32:54;;;;;;;13.63;8.37;;;-5.80;99.90;;;;;;5061812;28;20035;-77
2023/12/03 02:35:19;;;;;;;13.50;9.07;;;-5.80;99.90;;;;;;5062175;28;20062;-77
2023/12/03 02:37:45;;;;;;;15.07;9.60;;;-5.90;99.90;;;;;;5061293;28;20155;-76
2023/12/03 02:40:10;;;;;;;13.20;8.87;;;-5.90;99.90;;;;;;5057849;28;20088;-77
2023/12/03 02:42:36;;;;;;;14.57;8.73;;;-5.90;99.90;;;;;;5056645;28;20962;-77
2023/12/03 02:45:03;;;;;;;14.43;9.10;;;-6.00;99.90;;;;;;5057084;28;20028;-77
2023/12/03 02:47:28;;;;;;;15.63;9.47;;;-5.90;99.90;;;;;;5057154;28;20037;-77
2023/12/03 02:49:54;;;;;;;14.77;9.67;;;-6.00;99.90;;;;;;5056481;28;20430;-77
2023/12/03 02:52:19;;;;;;;16.10;9.93;;;-6.00;99.90;;;;;;5056590;28;21494;-77
2023/12/03 02:54:45;;;;;;;15.93;9.63;;;-6.00;99.90;;;;;;5056672;28;20028;-77
2023/12/03 02:57:10;;;;;;;16.40;10.47;;;-6.10;99.90;;;;;;5056496;28;20032;-77
2023/12/03 02:59:36;;;;;;;15.13;9.40;;;-6.10;99.90;;;;;;5057486;28;20060;-77
2023/12/03 03:02:01;;;;;;;19.00;10.83;;;-6.10;99.90;;;;;;5056800;28;20468;-77
2023/12/03 03:04:27;;;;;;;18.30;10.43;;;-6.10;99.90;;;;;;5056971;28;20028;-77
2023/12/03 03:06:52;;;;;;;15.23;9.37;;;-6.10;99.90;;;;;;5056127;28;20043;-77
2023/12/03 03:09:18;;;;;;;17.00;10.00;;;-6.20;99.90;;;;;;5056252;28;20064;-77
2023/12/03 03:11:43;;;;;;;16.83;9.63;;;-6.20;99.90;;;;;;5056653;28;20391;-77
2023/12/03 03:14:09;;;;;;;14.93;9.30;;;-6.20;99.90;;;;;;5056113;28;20032;-77
2023/12/03 03:16:35;;;;;;;15.97;9.80;;;-6.20;99.90;;;;;;5056427;28;20056;-78
2023/12/03 03:19:00;;;;;;;16.03;9.23;;;-6.20;99.90;;;;;;5055592;28;20088;-77
2023/12/03 03:21:26;;;;;;;15.90;10.37;;;-6.20;99.90;;;;;;5057569;28;20024;-77
2023/12/03 03:23:51;;;;;;;14.07;9.57;;;-6.30;99.90;;;;;;5057163;28;20024;-77
2023/12/03 03:26:17;;;;;;;15.43;9.43;;;-6.30;99.90;;;;;;5056807;28;20104;-77
2023/12/03 03:28:43;;;;;;;14.47;8.70;;;-6.30;99.90;;;;;;5056314;28;20415;-77
2023/12/03 03:31:08;;;;;;;13.90;9.33;;;-6.40;99.90;;;;;;5056761;28;20029;-77
2023/12/03 03:33:34;;;;;;;15.53;8.90;;;-6.40;99.90;;;;;;5056435;28;20166;-77
2023/12/03 03:35:59;;;;;;;14.33;8.90;;;-6.50;99.90;;;;;;5057471;28;20247;-77
2023/12/03 03:38:25;;;;;;;13.17;8.90;;;-6.60;99.90;;;;;;5057229;28;21413;-77
2023/12/03 03:40:50;;;;;;;15.03;9.60;;;-6.60;99.90;;;;;;5057233;28;20119;-77
2023/12/03 03:43:16;;;;;;;14.53;9.30;;;-6.70;99.90;;;;;;5056268;28;20021;-77
2023/12/03 03:45:42;;;;;;;14.93;9.20;;;-6.80;99.90;;;;;;5057187;28;20057;-77
2023/12/03 03:48:07;;;;;;;15.87;9.70;;;-6.80;99.90;;;;;;5056819;28;20028;-77
2023/12/03 03:50:33;;;;;;;14.37;9.17;;;-6.80;99.90;;;;;;5056980;28;20040;-77
2023/12/03 03:52:59;;;;;;;15.20;9.23;;;-6.90;99.90;;;;;;5056101;28;20024;-77
2023/12/03 03:55:24;;;;;;;15.40;9.43;;;-6.80;99.90;;;;;;5056775;28;20028;-77
2023/12/03 03:57:50;;;;;;;15.27;9.00;;;-6.90;99.90;;;;;;5057251;28;20025;-77
2023/12/03 04:00:16;;;;;;;17.30;10.57;;;-6.90;99.90;;;;;;5055836;28;20021;-77
2023/12/03 04:02:41;;;;;;;17.27;9.93;;;-6.80;99.90;;;;;;5055860;28;20048;-77
2023/12/03 04:05:07;;;;;;;14.77;9.43;;;-6.90;99.90;;;;;;5055740;28;20020;-77
2023/12/03 04:07:33;;;;;;;15.03;9.47;;;-6.90;99.90;;;;;;5056388;28;20033;-77
2023/12/03 04:09:59;;;;;;;15.17;9.10;;;-6.90;99.90;;;;;;5055303;28;20032;-77
2023/12/03 04:12:24;;;;;;;14.53;8.87;;;-6.90;99.90;;;;;;5056366;28;20032;-77
2023/12/03 04:14:50;;;;;;;16.00;9.70;;;-6.90;99.90;;;;;;5056050;28;20063;-77
2023/12/03 04:17:15;;;;;;;14.00;8.73;;;-6.90;99.90;;;;;;5057753;28;20479;-77
2023/12/03 04:19:41;;;;;;;15.27;8.77;;;-6.90;99.90;;;;;;5056888;28;20499;-77
2023/12/03 04:22:06;;;;;;;15.73;10.10;;;-6.90;99.90;;;;;;5056577;28;20025;-77
2023/12/03 04:24:32;;;;;;;13.83;9.17;;;-6.90;99.90;;;;;;5054393;28;20080;-77
2023/12/03 04:26:57;;;;;;;14.83;8.80;;;-6.90;99.90;;;;;;5055281;28;21477;-77
2023/12/03 04:29:23;;;;;;;14.03;8.97;;;-7.00;99.90;;;;;;5054469;28;20028;-76
2023/12/03 04:31:49;;;;;;;14.67;9.10;;;-7.00;99.90;;;;;;5055111;28;20028;-77
2023/12/03 04:34:14;;;;;;;13.90;9.07;;;-7.00;99.90;;;;;;5055371;28;20020;-76
2023/12/03 04:36:43;;;;;;;17.97;10.17;;;-7.00;99.90;;;;;;5055550;28;20024;-76
2023/12/03 04:39:09;;;;;;;14.67;9.10;;;-7.00;99.90;;;;;;5054486;28;20024;-76
2023/12/03 04:41:35;;;;;;;14.80;8.60;;;-7.10;99.90;;;;;;5055167;28;20033;-76
2023/12/03 04:44:00;;;;;;;14.87;9.23;;;-7.10;99.90;;;;;;5054630;28;20466;-77
2023/12/03 04:46:26;;;;;;;15.77;9.17;;;-7.10;99.90;;;;;;5053545;28;20024;-76
2023/12/03 04:48:51;;;;;;;17.90;9.23;;;-7.10;99.90;;;;;;5055727;28;20105;-76
2023/12/03 04:51:17;;;;;;;17.57;10.57;;;-7.10;99.90;;;;;;5054274;28;20039;-76
2023/12/03 04:53:42;;;;;;;14.93;9.50;;;-7.10;99.90;;;;;;5054786;28;20021;-77
2023/12/03 04:56:08;;;;;;;17.23;9.77;;;-7.10;99.90;;;;;;5054620;28;20028;-76
2023/12/03 04:58:34;;;;;;;16.50;9.30;;;-7.10;99.90;;;;;;5054145;28;20032;-77
2023/12/03 05:00:59;;;;;;;16.10;9.17;;;-7.10;99.90;;;;;;5053535;28;20035;-76
2023/12/03 05:03:25;;;;;;;14.63;8.93;;;-7.10;99.90;;;;;;5055516;28;20032;-76
2023/12/03 05:05:51;;;;;;;15.97;9.67;;;-7.00;99.90;;;;;;5054204;28;20051;-76
2023/12/03 05:08:17;;;;;;;14.93;10.00;;;-7.00;99.90;;;;;;5053717;28;20058;-76
2023/12/03 05:10:43;;;;;;;15.57;8.83;;;-7.00;99.90;;;;;;5054521;28;20171;-76
2023/12/03 05:13:08;;;;;;;17.37;9.50;;;-6.90;99.90;;;;;;5055922;28;20368;-76
2023/12/03 05:15:34;;;;;;;17.77;9.83;;;-6.90;99.90;;;;;;5056410;28;20524;-76
2023/12/03 05:17:59;;;;;;;17.00;10.10;;;-6.80;99.90;;;;;;5057954;28;20024;-76
2023/12/03 05:20:25;;;;;;;18.40;11.23;;;-6.80;99.90;;;;;;5059120;28;20028;-76
2023/12/03 05:22:51;;;;;;;14.73;8.93;;;-6.70;99.90;;;;;;5058301;28;20039;-76
2023/12/03 05:25:18;;;;;;;15.73;9.03;;;-6.70;99.90;;;;;;5058852;28;20029;-76
2023/12/03 05:27:44;;;;;;;14.17;8.57;;;-6.80;99.90;;;;;;5057307;28;20052;-76
2023/12/03 05:30:10;;;;;;;15.73;9.77;;;-6.80;99.90;;;;;;5056505;28;20057;-76
2023/12/03 05:32:36;;;;;;;17.70;10.03;;;-6.90;99.90;;;;;;5058713;28;20124;-77
2023/12/03 05:35:01;;;;;;;17.53;9.87;;;-7.00;99.90;;;;;;5057684;28;20025;-76
2023/12/03 05:37:28;;;;;;;16.83;9.67;;;-7.00;99.90;;;;;;5057900;28;20563;-77
2023/12/03 05:39:54;;;;;;;18.93;11.20;;;-7.00;99.90;;;;;;5057587;28;20024;-77
2023/12/03 05:42:20;;;;;;;16.97;10.33;;;-7.00;99.90;;;;;;5056843;28;20748;-76
2023/12/03 05:44:46;;;;;;;18.00;9.90;;;-7.10;99.90;;;;;;5057338;28;20060;-77
2023/12/03 05:47:12;;;;;;;19.23;10.50;;;-7.00;99.90;;;;;;5057253;28;20168;-77
2023/12/03 05:49:38;;;;;;;16.33;10.33;;;-7.00;99.90;;;;;;5057354;28;20036;-77
2023/12/03 05:52:04;;;;;;;16.73;10.17;;;-7.00;99.90;;;;;;5057984;28;20688;-77
2023/12/03 05:54:30;;;;;;;20.13;10.70;;;-7.00;99.90;;;;;;5057340;28;20031;-77
2023/12/03 05:56:55;;;;;;;18.57;11.20;;;-7.00;99.90;;;;;;5058533;28;20021;-77
2023/12/03 05:59:22;;;;;;;19.03;10.63;;;-7.00;99.90;;;;;;5058158;28;20025;-77
2023/12/03 06:01:48;;;;;;;19.90;11.87;;;-6.90;99.90;;;;;;5057201;28;20312;-77
2023/12/03 06:04:14;;;;;;;16.83;10.43;;;-6.90;99.90;;;;;;5056611;28;20830;-77
2023/12/03 06:06:39;;;;;;;19.40;10.97;;;-6.90;99.90;;;;;;5055575;28;20082;-77
2023/12/03 06:09:05;;;;;;;17.67;10.40;;;-6.90;99.90;;;;;;5057754;28;20028;-77
2023/12/03 06:11:35;;;;;;;18.70;11.17;;;-6.80;99.90;;;;;;5057682;28;20130;-76
2023/12/03 06:14:01;;;;;;;15.97;10.33;;;-6.80;99.90;;;;;;5057106;28;20036;-77
2023/12/03 06:16:27;;;;;;;19.77;10.83;;;-6.70;99.90;;;;;;5056855;28;20437;-77
2023/12/03 06:18:53;;;;;;;18.93;11.43;;;-6.80;99.90;;;;;;5057516;28;20028;-76
2023/12/03 06:21:18;;;;;;;17.43;10.20;;;-6.70;99.90;;;;;;5057309;28;20033;-76
2023/12/03 06:23:44;;;;;;;19.03;11.03;;;-6.70;99.90;;;;;;5057299;28;20443;-76
2023/12/03 06:26:09;;;;;;;17.83;10.83;;;-6.70;99.90;;;;;;5056091;28;20028;-77
2023/12/03 06:28:35;;;;;;;20.30;12.43;;;-6.60;99.90;;;;;;5055813;28;20434;-77
2023/12/03 06:31:01;;;;;;;19.23;10.97;;;-6.60;99.90;;;;;;5056375;28;20613;-77
2023/12/03 06:33:26;;;;;;;18.07;11.27;;;-6.60;99.90;;;;;;5056707;28;20021;-76
2023/12/03 06:35:53;;;;;;;20.17;11.27;;;-6.50;99.90;;;;;;5055555;28;20146;-76
2023/12/03 06:38:19;;;;;;;19.40;10.33;;;-6.50;99.90;;;;;;5058955;28;20032;-76
2023/12/03 06:40:45;;;;;;;20.50;11.93;;;-6.50;99.90;;;;;;5058284;28;20031;-76
2023/12/03 06:43:10;;;;;;;17.47;12.23;;;-6.40;99.90;;;;;;5058220;28;21495;-76
2023/12/03 06:45:37;;;;;;;20.57;11.53;;;-6.40;99.90;;;;;;5055664;28;20032;-75
2023/12/03 06:48:03;;;;;;;22.37;12.50;;;-6.30;99.90;;;;;;5055869;28;20122;-76
2023/12/03 06:50:28;;;;;;;20.33;11.27;;;-6.30;99.90;;;;;;5056518;28;20040;-76
2023/12/03 06:52:54;;;;;;;18.83;11.50;;;-6.30;99.90;;;;;;5054522;28;20016;-76
2023/12/03 06:55:19;;;;;;;26.10;12.43;;;-6.20;99.90;;;;;;5055450;28;20492;-75
2023/12/03 06:57:45;;;;;;;19.53;12.00;;;-6.20;99.90;;;;;;5055141;28;20059;-76
2023/12/03 07:00:11;;;;;;;22.23;11.87;;;-6.20;99.90;;;;;;5055017;28;20037;-76
2023/12/03 07:02:36;;;;;;;20.73;12.13;;;-6.10;99.90;;;;;;5056336;28;20034;-76
2023/12/03 07:05:02;;;;;;;20.83;12.60;;;-6.10;99.90;;;;;;5055352;28;20025;-77
2023/12/03 07:07:29;;;;;;;21.40;12.87;;;-6.10;99.90;;;;;;5054844;28;20165;-76
2023/12/03 07:09:55;;;;;;;25.77;14.60;;;-6.00;99.90;;;;;;5054823;28;20051;-76
2023/12/03 07:12:20;;;;;;;21.90;12.90;;;-6.00;99.90;;;;;;5055141;28;20032;-76
2023/12/03 07:14:46;;;;;;;20.63;12.03;;;-6.00;99.90;;;;;;5055338;28;20020;-76
2023/12/03 07:17:11;;;;;;;23.03;12.13;;;-6.00;99.90;;;;;;5056040;28;20032;-77
2023/12/03 07:19:41;;;;;;;19.33;11.40;;;-6.00;99.90;;;;;;5054340;28;20070;-77
2023/12/03 07:22:07;;;;;;;19.00;11.27;;;-5.90;99.90;;;;;;5055739;28;20024;-77
2023/12/03 07:24:32;;;;;;;19.57;12.10;;;-5.90;99.90;;;;;;5055573;28;20059;-77
2023/12/03 07:26:58;;;;;;;19.47;11.23;;;-5.90;99.90;;;;;;5054133;28;20609;-77
2023/12/03 07:29:23;;;;;;;17.90;11.13;;;-5.90;99.90;;;;;;5054312;28;20873;-77
2023/12/03 07:31:49;;;;;;;23.83;12.83;;;-5.80;99.90;;;;;;5054639;28;20028;-77
2023/12/03 07:34:14;;;;;;;20.17;11.27;;;-5.80;99.90;;;;;;5054428;28;20033;-77
2023/12/03 07:36:40;;;;;;;17.50;10.77;;;-5.70;99.90;;;;;;5054114;28;20029;-77
2023/12/03 07:39:05;;;;;;;19.93;12.20;;;-5.70;99.90;;;;;;5054506;28;20024;-77
2023/12/03 07:41:31;;;;;;;20.10;12.57;;;-5.60;99.90;;;;;;5054632;28;20032;-77
2023/12/03 07:43:56;;;;;;;18.27;11.33;;;-5.50;99.90;;;;;;5055555;28;20024;-78
2023/12/03 07:46:22;;;;;;;21.13;11.73;;;-5.50;99.90;;;;;;5053893;28;20033;-78
2023/12/03 07:48:48;;;;;;;18.67;11.53;;;-5.40;99.90;;;;;;5052682;28;20058;-77
2023/12/03 07:51:13;;;;;;;18.60;11.23;;;-5.40;99.90;;;;;;5054111;28;20158;-77
2023/12/03 07:53:40;;;;;;;18.43;11.63;;;-5.40;99.90;;;;;;5055315;28;20028;-77
2023/12/03 07:56:06;;;;;;;21.07;11.77;;;-5.30;99.90;;;;;;5053289;28;20020;-77
2023/12/03 07:58:33;;;;;;;18.80;10.93;;;-5.20;99.90;;;;;;5052659;28;20040;-77
2023/12/03 08:01:00;;;;;;;23.60;13.10;;;-5.20;99.90;;;;;;5052966;28;20949;-76
2023/12/03 08:03:26;;;;;;;22.50;13.60;;;-5.10;99.90;;;;;;5052839;28;20061;-76
2023/12/03 08:05:51;;;;;;;22.80;13.87;;;-5.00;99.90;;;;;;5052736;28;20431;-76
2023/12/03 08:08:17;;;;;;;21.87;12.87;;;-5.00;99.90;;;;;;5053216;28;20024;-77
2023/12/03 08:10:42;;;;;;;22.90;13.27;;;-4.80;99.90;;;;;;5053034;28;20024;-76
2023/12/03 08:13:08;;;;;;;21.97;13.83;;;-4.80;99.90;;;;;;5053780;28;20028;-77
2023/12/03 08:15:33;;;;;;;20.50;12.67;;;-4.70;99.90;;;;;;5054764;28;20123;-77
2023/12/03 08:17:59;;;;;;;20.20;12.00;;;-4.60;99.90;;;;;;5050751;28;20139;-76
2023/12/03 08:20:24;;;;;;;20.90;13.00;;;-4.50;99.90;;;;;;5056363;28;20041;-76
2023/12/03 08:22:50;;;;;;;21.63;13.07;;;-4.40;99.90;;;;;;5056210;28;20135;-76
2023/12/03 08:25:16;;;;;;;22.93;12.90;;;-4.30;99.90;;;;;;5055035;28;20024;-77
2023/12/03 08:27:42;;;;;;;20.50;12.47;;;-4.30;99.90;;;;;;5049361;28;20183;-79
2023/12/03 08:30:08;;;;;;;21.67;13.77;;;-4.20;99.90;;;;;;5052948;28;20033;-76
2023/12/03 08:32:34;;;;;;;21.20;12.67;;;-4.10;99.90;;;;;;5054148;28;20048;-76
2023/12/03 08:34:59;;;;;;;20.70;13.07;;;-4.10;99.90;;;;;;5050898;28;20035;-76
2023/12/03 08:37:25;;;;;;;20.70;13.53;;;-4.10;99.90;;;;;;5052850;28;20526;-76
2023/12/03 08:39:50;;;;;;;19.40;12.60;;;-4.10;99.90;;;;;;5052644;28;20033;-77
2023/12/03 08:42:17;;;;;;;21.23;11.93;;;-4.10;99.90;;;;;;5053238;28;20090;-77
2023/12/03 08:44:42;;;;;;;18.27;11.93;;;-4.20;99.90;;;;;;5053580;28;20024;-77
2023/12/03 08:47:08;;;;;;;20.57;11.50;;;-4.20;99.90;;;;;;5052399;28;20101;-77
2023/12/03 08:49:34;;;;;;;21.17;12.50;;;-4.10;99.90;;;;;;5052307;28;20044;-77
2023/12/03 08:52:00;;;;;;;20.53;12.23;;;-4.10;99.90;;;;;;5056688;28;20512;-77
2023/12/03 08:54:25;;;;;;;22.33;14.33;;;-4.00;99.90;;;;;;5055970;28;20024;-77
2023/12/03 08:56:51;;;;;;;21.50;13.07;;;-4.00;99.90;;;;;;5053966;28;20392;-77
2023/12/03 08:59:17;;;;;;;23.43;14.30;;;-3.90;99.90;;;;;;5056976;28;20070;-77
2023/12/03 09:01:42;;;;;;;20.17;12.90;;;-3.80;99.90;;;;;;5060628;28;20029;-78
2023/12/03 09:04:09;;;;;;;23.80;13.37;;;-3.80;99.90;;;;;;5059833;28;20177;-77
2023/12/03 09:06:34;;;;;;;19.30;11.63;;;-3.70;99.90;;;;;;5056905;28;20114;-77
2023/12/03 09:09:00;;;;;;;16.60;11.63;;;-3.60;99.90;;;;;;5057586;28;20163;-77
2023/12/03 09:11:26;;;;;;;18.83;11.63;;;-3.50;99.90;;;;;;5056116;28;20116;-77
2023/12/03 09:13:51;;;;;;;19.13;11.77;;;-3.30;99.90;;;;;;5058098;28;20260;-77
2023/12/03 09:16:17;;;;;;;16.60;10.53;;;-3.20;99.90;;;;;;5057350;28;20557;-77
2023/12/03 09:18:42;;;;;;;18.07;11.97;;;-3.10;99.90;;;;;;5059047;28;20103;-77
2023/12/03 09:21:11;;;;;;;17.40;11.70;;;-3.10;99.90;;;;;;5058868;28;20078;-78
2023/12/03 09:23:36;;;;;;;16.40;10.73;;;-3.00;99.90;;;;;;5057232;28;20020;-77
2023/12/03 09:26:02;;;;;;;19.10;11.97;;;-2.90;99.90;;;;;;5057843;28;20407;-76
2023/12/03 09:28:30;;;;;;;17.07;11.30;;;-3.00;99.90;;;;;;5056964;28;20411;-77
2023/12/03 09:30:57;;;;;;;20.80;11.37;;;-2.90;99.90;;;;;;5056642;28;20040;-77
2023/12/03 09:33:26;;;;;;;19.87;11.43;;;-2.90;99.90;;;;;;5056047;28;20021;-77
2023/12/03 09:35:53;;;;;;;18.03;12.13;;;-2.90;99.90;;;;;;5057949;28;20029;-77
2023/12/03 09:38:19;;;;;;;17.73;11.77;;;-2.90;99.90;;;;;;5056986;28;20139;-77
2023/12/03 09:40:46;;;;;;;20.40;13.03;;;-3.00;99.90;;;;;;5056129;28;20029;-76
2023/12/03 09:43:16;;;;;;;19.40;12.30;;;-3.00;99.90;;;;;;5056092;28;20608;-76
2023/12/03 09:45:43;;;;;;;18.90;12.03;;;-2.90;99.90;;;;;;5056813;28;20033;-77
2023/12/03 09:48:10;;;;;;;19.23;12.30;;;-2.90;99.90;;;;;;5057250;28;21408;-77
2023/12/03 09:50:37;;;;;;;21.17;12.60;;;-2.80;99.90;;;;;;5058508;28;20135;-77
2023/12/03 09:53:04;;;;;;;20.73;12.47;;;-2.80;99.90;;;;;;5054914;28;20415;-77
2023/12/03 09:55:31;;;;;;;17.37;12.03;;;-2.70;99.90;;;;;;5056298;28;20029;-77
2023/12/03 09:57:58;;;;;;;19.80;13.07;;;-2.60;99.90;;;;;;5057832;28;20036;-76
2023/12/03 10:00:24;;;;;;;17.57;11.67;;;-2.60;99.90;;;;;;5057516;28;20031;-76
2023/12/03 10:02:52;;;;;;;19.20;11.67;;;-2.40;99.90;;;;;;5056898;28;20024;-75
2023/12/03 10:05:18;;;;;;;21.63;12.67;;;-2.20;99.90;;;;;;5056949;28;20557;-75
2023/12/03 10:07:47;;;;;;;17.57;11.70;;;-2.00;99.90;;;;;;5057051;28;20025;-76
2023/12/03 10:10:17;;;;;;;17.57;11.27;;;-1.90;99.90;;;;;;5057962;28;20439;-77
2023/12/03 10:12:43;;;;;;;17.40;11.80;;;-1.60;99.90;;;;;;5057541;28;20040;-76
2023/12/03 10:15:09;;;;;;;19.83;11.93;;;-1.50;99.90;;;;;;5056014;28;20024;-76
2023/12/03 10:17:35;;;;;;;15.80;10.77;;;-1.40;99.90;;;;;;5057258;28;20032;-81
2023/12/03 10:20:20;;;;;;;19.77;11.50;;;-1.40;99.90;;;;;;5059086;28;20024;-81
2023/12/03 10:22:46;;;;;;;17.67;10.90;;;-1.50;99.90;;;;;;5056576;28;20459;-77
2023/12/03 10:25:24;;;;;;;18.00;12.03;;;-1.60;99.90;;;;;;5054966;28;20036;-78
2023/12/03 10:27:54;;;;;;;17.80;11.60;;;-1.60;99.90;;;;;;5056580;28;20633;-78
2023/12/03 10:30:20;;;;;;;17.90;11.77;;;-1.70;99.90;;;;;;5057939;28;20047;-77
2023/12/03 10:32:46;;;;;;;18.53;11.73;;;-1.80;99.90;;;;;;5057402;28;20025;-76
2023/12/03 10:35:11;;;;;;;17.93;12.33;;;-1.80;99.90;;;;;;5056120;28;20021;-76
2023/12/03 10:37:38;;;;;;;18.90;11.87;;;-1.90;99.90;;;;;;5057112;28;20399;-76
2023/12/03 10:40:03;;;;;;;16.97;11.60;;;-1.80;99.90;;;;;;5057781;28;20093;-76
2023/12/03 10:42:33;;;;;;;16.90;11.10;;;-1.90;99.90;;;;;;5058721;28;20036;-77
2023/12/03 10:45:06;;;;;;;19.00;12.13;;;-1.80;99.90;;;;;;5062800;28;20101;-76
2023/12/03 10:47:33;;;;;;;16.77;11.37;;;-1.80;99.90;;;;;;5062175;28;20032;-76
2023/12/03 10:50:00;;;;;;;17.93;11.50;;;-1.80;99.90;;;;;;5063546;28;20103;-76
2023/12/03 10:52:27;;;;;;;16.97;10.73;;;-1.80;99.90;;;;;;5055981;28;20056;-76
2023/12/03 10:54:52;;;;;;;15.60;9.27;;;-1.70;99.90;;;;;;5056207;28;20020;-76
2023/12/03 10:57:18;;;;;;;15.70;10.43;;;-1.70;99.90;;;;;;5057227;28;20028;-78
2023/12/03 10:59:46;;;;;;;13.80;9.20;;;-1.70;99.90;;;;;;5057289;28;20048;-77
2023/12/03 11:02:14;;;;;;;16.03;9.30;;;-1.60;99.90;;;;;;5056743;28;20372;-77
2023/12/03 11:04:47;;;;;;;15.80;10.57;;;-1.60;99.90;;;;;;5056514;28;20487;-77
2023/12/03 11:07:18;;;;;;;14.53;9.80;;;-1.70;99.90;;;;;;5056248;28;20028;-77
2023/12/03 11:09:43;;;;;;;15.60;10.10;;;-1.60;99.90;;;;;;5054920;28;20028;-77
2023/12/03 11:12:09;;;;;;;16.83;9.80;;;-1.60;99.90;;;;;;5058421;28;20020;-80
2023/12/03 11:14:36;;;;;;;15.43;10.70;;;-1.60;99.90;;;;;;5058305;28;20024;-73
2023/12/03 11:17:07;;;;;;;16.57;10.53;;;-1.50;99.90;;;;;;5056132;28;20040;-77
2023/12/03 11:19:35;;;;;;;18.53;11.13;;;-1.50;99.90;;;;;;5058173;28;20033;-74
2023/12/03 11:22:15;;;;;;;16.80;10.97;;;-1.50;99.90;;;;;;5056994;28;20033;-74
2023/12/03 11:24:44;;;;;;;16.27;11.00;;;-1.40;99.90;;;;;;5054005;28;20032;-74
2023/12/03 11:27:10;;;;;;;16.83;10.43;;;-1.40;99.90;;;;;;5055639;28;20130;-74
2023/12/03 11:29:49;;;;;;;17.57;11.43;;;-1.40;99.90;;;;;;5056010;28;20044;-74
2023/12/03 11:32:16;;;;;;;16.77;10.70;;;-1.40;99.90;;;;;;5055006;28;20041;-74
2023/12/03 11:34:43;;;;;;;16.10;10.83;;;-1.30;99.90;;;;;;5054345;28;20032;-75
2023/12/03 11:37:09;;;;;;;15.00;10.80;;;-1.30;99.90;;;;;;5054892;28;20029;-74
2023/12/03 11:39:42;;;;;;;16.40;11.27;;;-1.20;99.90;;;;;;5054267;28;20043;-74
2023/12/03 11:42:09;;;;;;;17.63;11.90;;;-1.20;99.90;;;;;;5055781;28;20761;-74
2023/12/03 11:44:35;;;;;;;15.93;10.67;;;-1.10;99.90;;;;;;5056455;28;20032;-74
2023/12/03 11:47:07;;;;;;;19.60;11.60;;;-1.00;99.90;;;;;;5056319;28;20040;-74
2023/12/03 11:49:34;;;;;;;16.67;11.30;;;-0.90;99.90;;;;;;5054528;28;20157;-74
2023/12/03 11:52:01;;;;;;;20.37;11.90;;;-0.80;99.90;;;;;;5057309;28;20016;-74
2023/12/03 11:54:51;;;;;;;16.33;11.27;;;-0.70;99.90;;;;;;5056072;28;20101;-74
2023/12/03 11:57:17;;;;;;;17.07;11.97;;;-0.60;99.90;;;;;;5048384;28;20117;-74
2023/12/03 11:59:43;;;;;;;16.50;11.30;;;-0.50;99.90;;;;;;5056621;28;20772;-73
2023/12/03 12:02:09;;;;;;;15.77;10.63;;;-0.50;99.90;;;;;;5056980;28;20071;-74
2023/12/03 12:04:35;;;;;;;17.17;11.43;;;-0.40;99.90;;;;;;5054816;28;21405;-74
2023/12/03 12:07:17;;;;;;;14.97;10.80;;;-0.40;99.90;;;;;;5054514;28;20028;-74
2023/12/03 12:09:45;;;;;;;20.63;12.77;;;-0.40;99.90;;;;;;5056039;28;20097;-74
2023/12/03 12:12:11;;;;;;;20.17;13.07;;;-0.50;99.90;;;;;;5056229;28;20037;-76
2023/12/03 12:14:38;;;;;;;18.00;12.20;;;-0.50;99.90;;;;;;5056134;28;20095;-75
2023/12/03 12:17:07;;;;;;;19.83;13.50;;;-0.50;99.90;;;;;;5056202;28;20459;-74
2023/12/03 12:19:33;;;;;;;20.10;12.53;;;-0.60;99.90;;;;;;5056212;28;20107;-74
2023/12/03 12:21:58;;;;;;;23.90;15.70;;;-0.60;99.90;;;;;;5055946;28;20039;-74
2023/12/03 12:24:24;;;;;;;16.87;12.23;;;-0.60;99.90;;;;;;5055742;28;20021;-74
2023/12/03 12:26:50;;;;;;;19.37;12.80;;;-0.50;99.90;;;;;;5054151;28;20113;-74